Aérodrome :
LOGIN :

S'inscrire | Disclaimer

   EN    FR    IT 

 










Légende :    VFR   VFR Marginal   IFR   IFR Intensif   IFR Très Intensif
Visi : 
Plafond : 
>= 8 km
>= 3000ft
5 à 8 km
1000 à 3000 ft
1500m à 5 km
500 à 1000 ft
800 à 1500m
200 à 500 ft
< 800m
< 200 ft
Symboles :   Orages  Brouillard  Fortes neiges  Fortes précipitations  Vent > 20 kt
SIGMETs :   Divers  Orages  Givrage  Turbulence  Onde Orograph.  Cendres Volcan.






- Altitude de l'aérodrome : 529 ft
- Code IATA : CHR


LFLX - Chateauroux

DERNIER METAR :
  • 281300Z AUTO 04011KT CAVOK 25/13 Q1025 NOSIG

METARs EXPIRÉS :
  • 281230Z AUTO 04008KT 340V110 CAVOK 25/13 Q1026 NOSIG
  • 281200Z AUTO 03008KT 360V070 CAVOK 25/13 Q1026 NOSIG
  • 281130Z AUTO 06008KT 010V100 CAVOK 24/13 Q1026 NOSIG
  • 281100Z AUTO 07010KT 040V110 CAVOK 24/12 Q1027 NOSIG
  • 281030Z AUTO 04008KT 010V080 CAVOK 23/13 Q1027 NOSIG

TAF TAF LFLX
Valide du 28 à 12h jusqu'au 29 à 18h UTC


281100Z 2812/2918 05008KT CAVOK



MET'MAP, la Météo Aéronautique d'un coup d'oeil ! - Copyright ORBIFLY Décembre 2007 - Disclaimer

ORBIFLY MET'MAP TEAM :

Programmation & Développement : Alexandra Zaïnal
Sur une idée originale de : Baudouin d'Aumeries
Assistance à la programmation : Marc-Olivier Méhu
Soutien technique & logistique : Manuel Goepfert

Contact : metmap@orbifly.com




SOURCES & CREDITS :

   NOAA